createdAt,value
2022-08-13T00:00:50.765Z,24.84
2022-08-13T00:04:01.538Z,24.83
2022-08-13T00:06:22.066Z,24.88
2022-08-13T00:08:54.479Z,24.97
2022-08-13T00:12:00.291Z,24.96
2022-08-13T00:14:36.050Z,24.80
2022-08-13T00:17:07.992Z,24.82
2022-08-13T00:19:36.359Z,24.56
2022-08-13T00:22:28.716Z,24.69
2022-08-13T00:24:52.581Z,24.73
2022-08-13T00:27:23.580Z,24.69
2022-08-13T00:29:57.245Z,24.67
2022-08-13T00:32:31.725Z,24.56
2022-08-13T00:34:59.899Z,24.27
2022-08-13T00:37:29.899Z,24.23
2022-08-13T00:40:17.735Z,24.48
2022-08-13T00:42:51.358Z,24.48
2022-08-13T00:45:20.669Z,24.60
2022-08-13T00:48:08.032Z,24.54
2022-08-13T00:50:37.475Z,24.56
2022-08-13T00:53:05.291Z,24.25
2022-08-13T00:55:32.567Z,23.95
2022-08-13T00:57:59.469Z,24.31
2022-08-13T01:00:29.520Z,24.32
2022-08-13T01:03:00.586Z,24.09
2022-08-13T01:05:46.747Z,24.28
2022-08-13T01:08:18.128Z,24.41
2022-08-13T01:10:55.314Z,24.37
2022-08-13T01:13:26.849Z,24.40
2022-08-13T01:15:57.399Z,24.41
2022-08-13T01:18:31.943Z,24.20
2022-08-13T01:21:10.498Z,24.29
2022-08-13T01:23:42.045Z,24.26
2022-08-13T01:26:11.543Z,24.35
2022-08-13T01:28:42.873Z,24.42
2022-08-13T01:31:17.554Z,24.39
2022-08-13T01:33:53.042Z,24.30
2022-08-13T01:36:31.373Z,24.49
2022-08-13T01:39:18.110Z,24.42
2022-08-13T01:41:54.537Z,24.53
2022-08-13T01:44:34.165Z,24.25
2022-08-13T01:47:25.587Z,23.85
2022-08-13T01:50:28.551Z,23.30
2022-08-13T01:53:23.161Z,23.86
2022-08-13T01:56:15.319Z,23.95
2022-08-13T01:59:09.017Z,23.83
2022-08-13T02:01:42.068Z,23.50
2022-08-13T02:04:12.790Z,23.46
2022-08-13T02:06:43.361Z,23.21
2022-08-13T02:09:58.315Z,22.93
2022-08-13T02:11:57.486Z,23.34
2022-08-13T02:14:28.805Z,23.65
2022-08-13T02:16:57.732Z,23.66
2022-08-13T02:19:30.661Z,23.98
2022-08-13T02:22:01.996Z,23.90
2022-08-13T02:24:29.972Z,23.95
2022-08-13T02:26:59.081Z,24.06
2022-08-13T02:29:26.311Z,23.95
2022-08-13T02:32:05.154Z,24.01
2022-08-13T02:34:40.445Z,24.19
2022-08-13T02:37:32.682Z,24.23
2022-08-13T02:39:56.038Z,24.31
2022-08-13T02:42:24.729Z,24.23
2022-08-13T02:44:52.439Z,24.22
2022-08-13T02:47:33.208Z,24.15
2022-08-13T02:50:11.011Z,24.02
2022-08-13T02:52:58.368Z,23.74
2022-08-13T02:55:34.300Z,23.28
2022-08-13T02:58:03.502Z,23.00
2022-08-13T03:00:31.972Z,22.96
2022-08-13T03:03:04.112Z,23.12
2022-08-13T03:05:43.031Z,23.00
2022-08-13T03:08:36.566Z,23.25
2022-08-13T03:11:08.916Z,23.07
2022-08-13T03:13:44.755Z,23.29
2022-08-13T03:16:18.551Z,23.62
2022-08-13T03:18:52.508Z,23.71
2022-08-13T03:21:33.201Z,23.55
2022-08-13T03:24:22.431Z,23.43
2022-08-13T03:26:58.486Z,23.21
2022-08-13T03:29:29.754Z,23.27
2022-08-13T03:32:15.833Z,23.31
2022-08-13T03:34:43.951Z,23.26
2022-08-13T03:37:13.314Z,22.87
2022-08-13T03:39:41.985Z,22.94
2022-08-13T03:42:12.415Z,23.29
2022-08-13T03:44:41.541Z,23.36
2022-08-13T03:47:30.920Z,23.29
2022-08-13T03:49:55.288Z,23.14
2022-08-13T03:52:33.561Z,23.06
2022-08-13T03:55:07.899Z,22.88
2022-08-13T03:58:02.241Z,23.05
2022-08-13T04:00:23.198Z,22.84
2022-08-13T04:02:54.187Z,23.17
2022-08-13T04:05:41.201Z,23.13
2022-08-13T04:08:09.705Z,22.99
2022-08-13T04:10:51.627Z,23.30
2022-08-13T04:14:01.286Z,23.19
2022-08-13T04:16:19.753Z,22.89
2022-08-13T04:18:48.193Z,23.05
2022-08-13T04:21:22.418Z,22.65
2022-08-13T04:23:56.247Z,22.64
2022-08-13T04:26:30.814Z,22.47
2022-08-13T04:29:00.552Z,22.42
2022-08-13T04:31:46.307Z,22.71
2022-08-13T04:34:30.418Z,22.78
2022-08-13T04:37:02.714Z,22.88
2022-08-13T04:40:08.823Z,23.05
2022-08-13T04:42:32.443Z,22.97
2022-08-13T04:45:11.161Z,22.84
2022-08-13T04:47:39.747Z,22.67
2022-08-13T04:50:10.944Z,22.83
2022-08-13T04:52:39.206Z,22.92
2022-08-13T04:55:13.020Z,22.90
2022-08-13T04:57:51.457Z,22.86
2022-08-13T05:00:25.680Z,22.83
2022-08-13T05:02:53.632Z,23.09
2022-08-13T05:05:25.608Z,22.89
2022-08-13T05:07:54.322Z,22.54
2022-08-13T05:10:30.170Z,22.97
2022-08-13T05:13:05.323Z,23.31
2022-08-13T05:15:42.152Z,23.04
2022-08-13T05:18:21.960Z,22.97
2022-08-13T05:20:55.317Z,23.02
2022-08-13T05:26:09.068Z,22.95
2022-08-13T05:26:23.759Z,22.91
2022-08-13T05:31:55.614Z,23.07
2022-08-13T05:34:26.326Z,23.16
2022-08-13T05:38:10.006Z,23.14
2022-08-13T05:39:43.301Z,22.97
2022-08-13T05:42:14.691Z,23.03
2022-08-13T05:44:44.645Z,22.87
2022-08-13T05:47:16.326Z,23.06
2022-08-13T05:49:54.986Z,22.95
2022-08-13T05:52:35.896Z,23.60
2022-08-13T05:56:05.732Z,23.77
2022-08-13T05:57:58.830Z,23.90
2022-08-13T06:00:44.555Z,23.86
2022-08-13T06:04:15.762Z,23.64
2022-08-13T06:06:24.737Z,23.52
2022-08-13T06:08:59.047Z,23.59
2022-08-13T06:12:25.686Z,23.77
2022-08-13T06:14:22.094Z,22.86
2022-08-13T06:16:55.075Z,23.32
2022-08-13T06:19:28.848Z,22.97
2022-08-13T06:22:03.254Z,23.31
2022-08-13T06:24:52.486Z,23.67
2022-08-13T06:27:54.267Z,23.84
2022-08-13T06:30:11.800Z,23.60
2022-08-13T06:33:57.588Z,23.28
2022-08-13T06:35:45.032Z,23.43
2022-08-13T06:38:22.160Z,23.40
2022-08-13T06:40:50.172Z,23.61
2022-08-13T06:43:21.032Z,24.09
2022-08-13T06:45:50.628Z,24.06
2022-08-13T06:48:33.412Z,23.82
2022-08-13T06:51:02.947Z,23.68
2022-08-13T06:54:21.214Z,23.59
2022-08-13T06:56:36.256Z,23.69
2022-08-13T06:59:13.012Z,23.97
2022-08-13T07:02:08.420Z,23.76
2022-08-13T07:04:31.038Z,23.93
2022-08-13T07:06:58.958Z,24.35
2022-08-13T07:09:31.219Z,24.51
2022-08-13T07:12:10.286Z,24.83
2022-08-13T07:14:37.018Z,24.77
2022-08-13T07:17:03.943Z,24.76
2022-08-13T07:19:54.654Z,24.70
2022-08-13T07:24:37.940Z,24.50
2022-08-13T07:25:06.076Z,24.19
2022-08-13T07:27:42.937Z,24.61
2022-08-13T07:30:16.103Z,24.72
2022-08-13T07:32:45.165Z,24.48
2022-08-13T07:35:16.692Z,24.79
2022-08-13T07:37:51.790Z,24.69
2022-08-13T07:40:21.397Z,24.80
2022-08-13T07:42:52.062Z,25.16
2022-08-13T07:46:25.866Z,24.64
2022-08-13T07:48:26.249Z,25.05
2022-08-13T07:51:05.331Z,24.73
2022-08-13T07:53:55.634Z,24.43
2022-08-13T07:56:33.124Z,24.68
2022-08-13T07:59:13.232Z,25.05
2022-08-13T08:02:19.638Z,24.98
2022-08-13T08:04:39.643Z,25.68
2022-08-13T08:07:10.262Z,25.34
2022-08-13T08:09:40.625Z,25.12
2022-08-13T08:12:27.925Z,25.52
2022-08-13T08:14:56.069Z,23.76
2022-08-13T08:18:15.336Z,24.28
2022-08-13T08:20:38.400Z,24.46
2022-08-13T08:23:13.563Z,25.07
2022-08-13T08:25:42.222Z,24.90
2022-08-13T08:28:34.646Z,24.81
2022-08-13T08:31:21.453Z,25.00
2022-08-13T08:34:02.036Z,24.62
2022-08-13T08:36:34.427Z,24.54
2022-08-13T08:39:24.515Z,25.26
2022-08-13T08:42:26.641Z,25.28
2022-08-13T08:44:56.415Z,25.05
2022-08-13T08:47:57.872Z,24.93
2022-08-13T08:50:27.794Z,24.59
2022-08-13T08:53:28.106Z,24.81
2022-08-13T08:56:07.600Z,24.86
2022-08-13T08:58:38.417Z,24.89
2022-08-13T09:01:08.271Z,25.22
2022-08-13T09:03:50.312Z,25.01
2022-08-13T09:06:27.576Z,25.19
2022-08-13T09:09:18.172Z,24.63
2022-08-13T09:11:55.393Z,25.30
2022-08-13T09:14:32.150Z,25.63
2022-08-13T09:17:04.342Z,25.20
2022-08-13T09:19:46.985Z,24.97
2022-08-13T09:22:26.042Z,24.77
2022-08-13T09:24:58.452Z,24.79
2022-08-13T09:28:11.714Z,23.58
2022-08-13T09:30:23.991Z,23.69
2022-08-13T09:33:01.630Z,23.87
2022-08-13T09:35:35.641Z,23.69
2022-08-13T09:38:10.660Z,23.70
2022-08-13T09:40:54.223Z,23.62
2022-08-13T09:43:44.871Z,23.81
2022-08-13T09:46:19.909Z,24.23
2022-08-13T09:48:49.848Z,23.93
2022-08-13T09:51:56.604Z,23.66
2022-08-13T09:54:05.943Z,23.80
2022-08-13T09:56:37.914Z,23.88
2022-08-13T09:59:31.245Z,23.31
2022-08-13T10:02:01.195Z,23.49
2022-08-13T10:04:31.049Z,23.35
2022-08-13T10:07:04.145Z,23.34
2022-08-13T10:09:55.363Z,23.07
2022-08-13T10:12:23.046Z,23.01
2022-08-13T10:14:56.525Z,22.86
2022-08-13T10:17:43.003Z,22.76
2022-08-13T10:20:19.789Z,22.94
2022-08-13T10:22:47.194Z,23.07
2022-08-13T10:25:14.657Z,23.04
2022-08-13T10:27:48.182Z,23.23
2022-08-13T10:30:58.403Z,23.25
2022-08-13T10:33:06.137Z,23.15
2022-08-13T10:35:33.691Z,22.72
2022-08-13T10:38:06.040Z,22.53
2022-08-13T10:40:36.226Z,22.97
2022-08-13T10:43:07.098Z,23.31
2022-08-13T10:45:47.465Z,23.39
2022-08-13T10:48:16.173Z,23.54
2022-08-13T10:50:46.691Z,23.86
2022-08-13T10:53:41.841Z,23.61
2022-08-13T10:56:12.841Z,23.73
2022-08-13T10:58:50.802Z,23.59
2022-08-13T11:01:23.818Z,23.75
2022-08-13T11:04:04.201Z,23.05
2022-08-13T11:06:36.058Z,22.97
2022-08-13T11:09:24.684Z,23.23
2022-08-13T11:11:59.935Z,23.15
2022-08-13T11:14:35.031Z,22.67
2022-08-13T11:17:09.417Z,22.84
2022-08-13T11:19:49.056Z,22.63
2022-08-13T11:22:26.274Z,23.13
2022-08-13T11:24:56.433Z,23.28
2022-08-13T11:27:25.734Z,23.44
2022-08-13T11:30:11.354Z,23.26
2022-08-13T11:32:39.299Z,22.92
2022-08-13T11:35:10.629Z,22.81
2022-08-13T11:37:40.799Z,22.97
2022-08-13T11:40:30.589Z,23.10
2022-08-13T11:43:10.744Z,22.70
2022-08-13T11:45:40.007Z,22.59
2022-08-13T11:48:11.501Z,22.78
2022-08-13T11:50:38.181Z,22.75
2022-08-13T11:53:08.978Z,23.01
2022-08-13T11:55:57.093Z,22.86
2022-08-13T11:58:32.648Z,23.05
2022-08-13T12:01:09.704Z,23.16
2022-08-13T12:04:16.199Z,23.43
2022-08-13T12:06:27.316Z,23.33
2022-08-13T12:09:15.316Z,23.76
2022-08-13T12:12:08.134Z,23.62
2022-08-13T12:14:32.705Z,23.60
2022-08-13T12:17:01.568Z,23.33
2022-08-13T12:19:28.527Z,23.51
2022-08-13T12:21:55.269Z,23.00
2022-08-13T12:24:22.142Z,23.46
2022-08-13T12:26:59.911Z,23.66
2022-08-13T12:29:31.192Z,23.71
2022-08-13T12:32:14.687Z,24.08
2022-08-13T12:34:48.770Z,23.96
2022-08-13T12:37:23.009Z,23.58
2022-08-13T12:39:58.178Z,23.43
2022-08-13T12:42:28.747Z,23.15
2022-08-13T12:45:05.367Z,23.31
2022-08-13T12:47:47.694Z,23.51
2022-08-13T12:50:17.557Z,23.44
2022-08-13T12:52:47.963Z,23.27
2022-08-13T12:55:23.834Z,23.25
2022-08-13T12:58:11.762Z,23.25
2022-08-13T13:00:38.501Z,23.28
2022-08-13T13:03:06.769Z,23.31
2022-08-13T13:05:40.363Z,23.38
2022-08-13T13:08:32.754Z,23.58
2022-08-13T13:11:12.528Z,22.67
2022-08-13T13:13:53.553Z,22.08
2022-08-13T13:16:35.527Z,22.89
2022-08-13T13:19:14.715Z,23.11
2022-08-13T13:21:47.386Z,23.20
2022-08-13T13:24:23.172Z,22.83
2022-08-13T13:27:00.251Z,22.44
2022-08-13T13:29:39.646Z,22.36
2022-08-13T13:32:40.374Z,22.83
2022-08-13T13:35:24.255Z,23.10
2022-08-13T13:38:06.286Z,22.91
2022-08-13T13:40:43.956Z,22.41
2022-08-13T13:43:24.078Z,22.11
2022-08-13T13:46:03.342Z,22.47
2022-08-13T13:48:42.081Z,22.57
2022-08-13T13:51:14.154Z,22.54
2022-08-13T13:54:17.617Z,22.78
2022-08-13T13:56:30.559Z,22.67
2022-08-13T13:58:59.844Z,22.35
2022-08-13T14:01:44.404Z,22.79
2022-08-13T14:04:14.151Z,22.73
2022-08-13T14:06:42.695Z,22.80
2022-08-13T14:09:10.057Z,22.63
2022-08-13T14:11:43.901Z,22.46
2022-08-13T14:14:17.636Z,22.16
2022-08-13T14:16:48.926Z,21.80
2022-08-13T14:19:49.160Z,21.70
2022-08-13T14:22:07.435Z,21.89
2022-08-13T14:24:38.461Z,22.22
2022-08-13T14:27:06.254Z,22.53
2022-08-13T14:29:35.108Z,21.97
2022-08-13T14:32:03.007Z,22.12
2022-08-13T14:34:31.100Z,22.17
2022-08-13T14:37:21.238Z,22.26
2022-08-13T14:39:55.983Z,21.50
2022-08-13T14:43:19.573Z,21.38
2022-08-13T14:45:53.595Z,22.29
2022-08-13T14:48:26.901Z,22.24
2022-08-13T14:51:00.568Z,21.98
2022-08-13T14:53:48.196Z,22.69
2022-08-13T14:56:19.506Z,22.26
2022-08-13T14:58:56.892Z,22.85
2022-08-13T15:01:25.921Z,23.20
2022-08-13T15:03:56.478Z,23.14
2022-08-13T15:06:24.855Z,22.90
2022-08-13T15:08:51.734Z,23.25
2022-08-13T15:11:20.076Z,23.28
2022-08-13T15:13:54.649Z,22.44
2022-08-13T15:16:32.721Z,22.98
2022-08-13T15:19:17.502Z,22.96
2022-08-13T15:21:48.112Z,23.62
2022-08-13T15:24:35.988Z,23.52
2022-08-13T15:27:08.513Z,23.74
2022-08-13T15:29:37.606Z,23.87
2022-08-13T15:32:08.187Z,23.95
2022-08-13T15:34:35.050Z,23.85
2022-08-13T15:37:02.063Z,23.80
2022-08-13T15:39:46.938Z,23.98
2022-08-13T15:42:15.125Z,23.42
2022-08-13T15:44:43.690Z,23.28
2022-08-13T15:47:17.583Z,23.50
2022-08-13T15:49:49.119Z,23.54
2022-08-13T15:52:17.572Z,23.85
2022-08-13T15:54:45.088Z,23.70
2022-08-13T15:57:17.888Z,23.60
2022-08-13T15:59:46.273Z,23.05
2022-08-13T16:02:41.703Z,22.36
2022-08-13T16:05:04.307Z,22.78
2022-08-13T16:07:32.698Z,23.45
2022-08-13T16:10:00.249Z,23.29
2022-08-13T16:12:32.977Z,23.04
2022-08-13T16:15:00.192Z,22.97
2022-08-13T16:17:27.462Z,23.19
2022-08-13T16:19:57.130Z,23.38
2022-08-13T16:22:26.113Z,23.19
2022-08-13T16:24:59.149Z,23.01
2022-08-13T16:27:49.560Z,23.06
2022-08-13T16:30:17.313Z,23.08
2022-08-13T16:32:48.572Z,23.04
2022-08-13T16:35:17.285Z,23.13
2022-08-13T16:37:57.005Z,23.15
2022-08-13T16:40:36.023Z,23.05
2022-08-13T16:43:10.770Z,22.64
2022-08-13T16:45:49.945Z,22.15
2022-08-13T16:48:17.587Z,22.37
2022-08-13T16:50:47.514Z,22.32
2022-08-13T16:53:24.515Z,22.63
2022-08-13T16:56:02.901Z,22.70
2022-08-13T16:58:30.150Z,22.79
2022-08-13T17:01:00.475Z,23.10
2022-08-13T17:04:00.851Z,23.46
2022-08-13T17:06:52.629Z,23.56
2022-08-13T17:09:29.656Z,23.43
2022-08-13T17:12:07.530Z,23.22
2022-08-13T17:14:37.916Z,22.96
2022-08-13T17:17:11.759Z,23.03
2022-08-13T17:19:58.367Z,22.99
2022-08-13T17:22:29.535Z,22.92
2022-08-13T17:24:58.162Z,23.01
2022-08-13T17:27:24.937Z,22.52
2022-08-13T17:30:01.498Z,22.49
2022-08-13T17:32:32.612Z,22.51
2022-08-13T17:35:02.982Z,22.24
2022-08-13T17:37:33.775Z,22.19
2022-08-13T17:40:20.200Z,22.17
2022-08-13T17:44:01.950Z,22.06
2022-08-13T17:45:37.143Z,22.04
2022-08-13T17:48:05.204Z,22.17
2022-08-13T17:50:42.088Z,22.37
2022-08-13T17:53:15.541Z,22.45
2022-08-13T17:55:51.156Z,22.58
2022-08-13T17:58:34.451Z,22.61
2022-08-13T18:01:17.317Z,22.47
2022-08-13T18:03:54.395Z,22.44
2022-08-13T18:06:28.282Z,22.37
2022-08-13T18:09:03.859Z,22.62
2022-08-13T18:11:40.985Z,22.60
2022-08-13T18:14:13.471Z,22.30
2022-08-13T18:17:06.508Z,22.39
2022-08-13T18:19:27.830Z,22.39
2022-08-13T18:21:55.202Z,21.60
2022-08-13T18:24:23.911Z,21.72
2022-08-13T18:26:57.870Z,21.68
2022-08-13T18:29:57.228Z,21.64
2022-08-13T18:32:14.162Z,21.91
2022-08-13T18:34:42.374Z,22.00
2022-08-13T18:37:17.311Z,21.93
2022-08-13T18:39:44.496Z,21.92
2022-08-13T18:42:32.614Z,22.24
2022-08-13T18:45:24.644Z,22.33
2022-08-13T18:47:57.576Z,22.53
2022-08-13T18:50:37.534Z,22.78
2022-08-13T18:53:30.871Z,21.45
2022-08-13T18:56:01.485Z,21.11
2022-08-13T18:58:33.383Z,20.74
2022-08-13T19:01:06.231Z,21.11
2022-08-13T19:03:58.812Z,21.47
2022-08-13T19:06:25.297Z,21.19
2022-08-13T19:08:57.250Z,21.38
2022-08-13T19:11:31.535Z,21.15
2022-08-13T19:14:04.954Z,20.99
2022-08-13T19:16:31.761Z,21.35
2022-08-13T19:18:58.954Z,21.29
2022-08-13T19:21:53.838Z,21.65
2022-08-13T19:24:28.734Z,21.36
2022-08-13T19:26:58.937Z,21.00
2022-08-13T19:29:27.760Z,20.62
2022-08-13T19:31:55.502Z,20.54
2022-08-13T19:34:29.915Z,19.87
2022-08-13T19:37:01.901Z,19.75
2022-08-13T19:39:43.990Z,20.17
2022-08-13T19:42:16.370Z,20.32
2022-08-13T19:44:48.462Z,20.34
2022-08-13T19:47:21.105Z,20.20
2022-08-13T19:50:03.839Z,20.04
2022-08-13T19:52:35.187Z,20.04
2022-08-13T19:55:02.067Z,20.33
2022-08-13T19:57:41.488Z,20.51
2022-08-13T20:00:15.619Z,19.50
2022-08-13T20:02:47.072Z,19.51
2022-08-13T20:05:51.312Z,19.89
2022-08-13T20:08:19.842Z,20.55
2022-08-13T20:11:22.862Z,20.25
2022-08-13T20:13:55.942Z,20.16
2022-08-13T20:16:24.579Z,19.64
2022-08-13T20:18:55.298Z,19.81
2022-08-13T20:21:27.833Z,20.08
2022-08-13T20:23:55.475Z,20.46
2022-08-13T20:26:22.318Z,20.67
2022-08-13T20:28:49.640Z,20.37
2022-08-13T20:31:16.872Z,20.27
2022-08-13T20:33:43.763Z,20.39
2022-08-13T20:36:12.539Z,20.45
2022-08-13T20:38:47.616Z,20.28
2022-08-13T20:41:16.874Z,20.22
2022-08-13T20:43:57.591Z,20.34
2022-08-13T20:46:28.161Z,20.33
2022-08-13T20:48:58.817Z,20.48
2022-08-13T20:51:27.243Z,20.13
2022-08-13T20:53:57.171Z,19.44
2022-08-13T20:56:41.657Z,19.49
2022-08-13T21:00:44.823Z,19.80
2022-08-13T21:01:58.556Z,20.19
2022-08-13T21:04:25.258Z,20.54
2022-08-13T21:06:56.588Z,20.81
2022-08-13T21:09:25.403Z,20.75
2022-08-13T21:11:52.430Z,20.78
2022-08-13T21:14:30.582Z,21.06
2022-08-13T21:16:59.218Z,20.99
2022-08-13T21:19:39.393Z,20.42
2022-08-13T21:22:12.412Z,19.77
2022-08-13T21:24:39.169Z,19.49
2022-08-13T21:27:24.105Z,19.77
2022-08-13T21:30:04.885Z,19.73
2022-08-13T21:33:03.638Z,19.63
2022-08-13T21:35:33.151Z,20.13
2022-08-13T21:38:04.429Z,20.36
2022-08-13T21:40:40.951Z,20.76
2022-08-13T21:43:12.560Z,20.96
2022-08-13T21:45:43.285Z,21.29
2022-08-13T21:48:10.113Z,21.40
2022-08-13T21:50:38.518Z,21.31
2022-08-13T21:53:28.121Z,21.30
2022-08-13T21:55:53.319Z,20.08
2022-08-13T21:58:21.190Z,20.50
2022-08-13T22:00:49.135Z,20.70
2022-08-13T22:04:00.077Z,20.54
2022-08-13T22:06:08.354Z,20.62
2022-08-13T22:08:43.221Z,20.97
2022-08-13T22:11:10.155Z,21.27
2022-08-13T22:13:36.959Z,21.21
2022-08-13T22:16:04.827Z,20.86
2022-08-13T22:18:37.040Z,20.52
2022-08-13T22:21:06.247Z,20.71
2022-08-13T22:23:33.811Z,21.11
2022-08-13T22:26:00.718Z,21.08
2022-08-13T22:28:46.753Z,21.15
2022-08-13T22:31:16.045Z,20.97
2022-08-13T22:34:01.654Z,21.12
2022-08-13T22:36:32.222Z,21.48
2022-08-13T22:39:01.854Z,21.35
2022-08-13T22:41:28.547Z,21.23
2022-08-13T22:43:58.337Z,21.33
2022-08-13T22:46:25.579Z,21.05
2022-08-13T22:48:56.415Z,20.68
2022-08-13T22:51:24.889Z,20.57
2022-08-13T22:53:53.836Z,20.40
2022-08-13T22:56:27.147Z,20.21
2022-08-13T22:58:54.023Z,20.24
2022-08-13T23:01:20.705Z,20.46
2022-08-13T23:03:48.867Z,20.65
2022-08-13T23:06:35.250Z,20.85
2022-08-13T23:09:02.928Z,20.83
2022-08-13T23:11:32.713Z,21.06
2022-08-13T23:13:59.486Z,20.83
2022-08-13T23:16:27.194Z,20.42
2022-08-13T23:18:58.301Z,19.78
2022-08-13T23:21:27.111Z,20.35
2022-08-13T23:23:57.006Z,20.58
2022-08-13T23:26:30.030Z,20.68
2022-08-13T23:29:02.123Z,20.79
2022-08-13T23:31:30.497Z,20.76
2022-08-13T23:34:04.886Z,20.82
2022-08-13T23:36:37.022Z,20.47
2022-08-13T23:39:08.179Z,20.35
2022-08-13T23:41:36.101Z,20.46
2022-08-13T23:44:10.740Z,20.67
2022-08-13T23:46:49.303Z,20.69
2022-08-13T23:49:22.860Z,20.78
2022-08-13T23:51:53.288Z,20.62
2022-08-13T23:54:21.884Z,20.22
2022-08-13T23:56:49.480Z,20.05
2022-08-13T23:59:18.273Z,20.20
